CPX457 Details

Departure: Minneapolis-St Paul International Airport (KMSP)
Arrival: Newark Liberty International Airport (KEWR)
Route: WLSTN7 GRB KEEHO J584 SLT FQM3


Current Weather Information
KMSP 231153Z 26004KT 10SM FEW180 BKN300 01/M01 A2980 RMK AO2 SLP098 70005 T00111011 10050 20011 51017
KEWR 231151Z 28009KT 10SM FEW090 FEW250 14/12 A2988 RMK AO2 SLP118 70052 T01390117 10167 20133 53028 $